Kickapoo, Illinois
Current Conditions -  °F | °C
As of 6:54 PM on Monday 20 Oct 2014 (Local Time) from KPIA Reporting Station
Few Clouds Few Clouds  
Wind Chill: 62°   Ceiling: Unl
Heat Index: 62°   Visibility: 10mi
Dew Point: 43°   Wind: 3mph
Humidity: 50%   Direction: 300°WNW
Pressure: 29.96"   Gusts: NA
Location:  40.7755°N, 89.7228°W
Report Text: KPIA 202354Z 30003KT 10SM FEW060 17/06 A2996 RMK AO2 SLP146 T01670061 10211 20167 51013
Loading
Personal Weather Stations






























Interactive Weather Map
Tropical Storm Tracking
New forecast layout! Learn more

10-Day Weather Forecast

Advertisements
Track Severe Weather on mobile